EYSA/SQQ METAR and TAF weather

Enter ICAO airport designator
Station Type Date Time Source
EYSA METAR 2019/02/23 02:50 UTC NOAA

EYSA 230250Z 23005KT CAVOK M07/M10 Q1042 R32R/09//95 BLU NOSIG


Station Type Date Time Source
EYSA Decoded METAR 2019/02/23 02:50 UTC NOAA

Siauliai Intl./Mil., Lithuania (EYSA) 55-53-38N 023-23-42E
Feb 22, 2019 - 09:50 PM EST / 2019.02.23 0250 UTC
Wind: from the SW (230 degrees) at 6 MPH (5 KT):0
Visibility: greater than 7 mile(s):0
Temperature: 19 F (-7 C)
Windchill: 10 F (-12 C):1
Dew Point: 14 F (-10 C)
Relative Humidity: 79%
Pressure (altimeter): 30.77 in. Hg (1042 hPa)
ob: EYSA 230250Z 23005KT CAVOK M07/M10 Q1042 R32R/09//95 BLU NOSIG
cycle: 3

Station Type Date Time Source
EYSA TAF 2019/01/10 12:09 UTC NOAA

TAF TAF EYSA 101105Z 1012/1024 VRB04KT 5000 BR NSC
TEMPO 1012/1019 SCT010
BECMG 1019/1021 BKN005


Example: see airport list